sensor_id;sensor_type;location;lat;lon;timestamp;pressure;altitude;pressure_sealevel;temperature;humidity
50282;BME280;36176;51.506;10.272;2023-04-24T00:01:37;98116.91;;;11.09;83.90
50282;BME280;36176;51.506;10.272;2023-04-24T00:04:06;98118.06;;;11.04;83.95
50282;BME280;36176;51.506;10.272;2023-04-24T00:06:34;98125.69;;;10.96;84.60
50282;BME280;36176;51.506;10.272;2023-04-24T00:09:01;98122.53;;;10.91;85.12
50282;BME280;36176;51.506;10.272;2023-04-24T00:11:29;98123.50;;;10.90;84.85
50282;BME280;36176;51.506;10.272;2023-04-24T00:13:56;98132.19;;;10.92;85.17
50282;BME280;36176;51.506;10.272;2023-04-24T00:16:23;98135.22;;;10.99;85.47
50282;BME280;36176;51.506;10.272;2023-04-24T00:18:50;98141.47;;;11.11;84.21
50282;BME280;36176;51.506;10.272;2023-04-24T00:21:19;98139.66;;;11.24;83.97
50282;BME280;36176;51.506;10.272;2023-04-24T00:23:47;98145.78;;;11.37;83.90
50282;BME280;36176;51.506;10.272;2023-04-24T00:26:14;98135.38;;;11.47;83.47
50282;BME280;36176;51.506;10.272;2023-04-24T00:28:41;98138.22;;;11.57;82.36
50282;BME280;36176;51.506;10.272;2023-04-24T00:31:08;98126.41;;;11.61;82.01
50282;BME280;36176;51.506;10.272;2023-04-24T00:33:35;98117.09;;;11.55;82.36
50282;BME280;36176;51.506;10.272;2023-04-24T00:36:02;98115.63;;;11.51;81.25
50282;BME280;36176;51.506;10.272;2023-04-24T00:38:29;98117.44;;;11.50;81.32
50282;BME280;36176;51.506;10.272;2023-04-24T00:40:56;98110.44;;;11.49;80.61
50282;BME280;36176;51.506;10.272;2023-04-24T00:43:23;98108.13;;;11.45;79.41
50282;BME280;36176;51.506;10.272;2023-04-24T00:45:50;98112.44;;;11.46;78.81
50282;BME280;36176;51.506;10.272;2023-04-24T00:48:18;98111.63;;;11.45;78.44
50282;BME280;36176;51.506;10.272;2023-04-24T00:50:45;98110.63;;;11.46;78.36
50282;BME280;36176;51.506;10.272;2023-04-24T00:53:12;98089.56;;;11.45;77.75
50282;BME280;36176;51.506;10.272;2023-04-24T00:55:39;98103.00;;;11.42;77.70
50282;BME280;36176;51.506;10.272;2023-04-24T00:58:07;98104.41;;;11.35;77.54
50282;BME280;36176;51.506;10.272;2023-04-24T01:00:34;98105.94;;;11.26;78.69
50282;BME280;36176;51.506;10.272;2023-04-24T01:03:04;98101.72;;;11.23;78.09
50282;BME280;36176;51.506;10.272;2023-04-24T01:05:34;98099.06;;;11.23;77.51
50282;BME280;36176;51.506;10.272;2023-04-24T01:08:01;98090.78;;;11.15;78.11
50282;BME280;36176;51.506;10.272;2023-04-24T01:10:29;98100.03;;;11.10;78.21
50282;BME280;36176;51.506;10.272;2023-04-24T01:12:57;98087.00;;;11.06;78.03
50282;BME280;36176;51.506;10.272;2023-04-24T01:15:24;98076.59;;;11.03;77.84
50282;BME280;36176;51.506;10.272;2023-04-24T01:17:51;98088.19;;;11.02;77.72
50282;BME280;36176;51.506;10.272;2023-04-24T01:20:18;98082.47;;;10.96;78.22
50282;BME280;36176;51.506;10.272;2023-04-24T01:22:45;98086.28;;;10.92;78.74
50282;BME280;36176;51.506;10.272;2023-04-24T01:25:12;98087.34;;;10.89;78.61
50282;BME280;36176;51.506;10.272;2023-04-24T01:27:39;98084.06;;;10.85;78.86
50282;BME280;36176;51.506;10.272;2023-04-24T01:30:07;98081.09;;;10.90;78.66
50282;BME280;36176;51.506;10.272;2023-04-24T01:32:35;98085.25;;;10.94;78.19
50282;BME280;36176;51.506;10.272;2023-04-24T01:35:03;98086.06;;;10.95;78.63
50282;BME280;36176;51.506;10.272;2023-04-24T01:37:30;98098.50;;;10.94;78.44
50282;BME280;36176;51.506;10.272;2023-04-24T01:39:59;98093.50;;;10.90;78.55
50282;BME280;36176;51.506;10.272;2023-04-24T01:42:26;98089.47;;;10.84;78.86
50282;BME280;36176;51.506;10.272;2023-04-24T01:44:53;98084.38;;;10.81;78.98
50282;BME280;36176;51.506;10.272;2023-04-24T01:47:21;98083.97;;;10.74;79.83
50282;BME280;36176;51.506;10.272;2023-04-24T01:49:48;98084.09;;;10.73;80.06
50282;BME280;36176;51.506;10.272;2023-04-24T01:52:16;98082.69;;;10.67;79.47
50282;BME280;36176;51.506;10.272;2023-04-24T01:54:44;98082.59;;;10.69;79.52
50282;BME280;36176;51.506;10.272;2023-04-24T01:57:11;98083.88;;;10.76;79.52
50282;BME280;36176;51.506;10.272;2023-04-24T01:59:38;98088.63;;;10.83;79.11
50282;BME280;36176;51.506;10.272;2023-04-24T02:02:05;98086.94;;;10.82;79.42
50282;BME280;36176;51.506;10.272;2023-04-24T02:04:33;98088.00;;;10.80;79.54
50282;BME280;36176;51.506;10.272;2023-04-24T02:07:00;98092.44;;;10.79;78.76
50282;BME280;36176;51.506;10.272;2023-04-24T02:09:26;98089.50;;;10.71;79.13
50282;BME280;36176;51.506;10.272;2023-04-24T02:11:53;98078.91;;;10.58;80.09
50282;BME280;36176;51.506;10.272;2023-04-24T02:14:20;98090.31;;;10.46;79.97
50282;BME280;36176;51.506;10.272;2023-04-24T02:16:47;98094.56;;;10.36;80.09
50282;BME280;36176;51.506;10.272;2023-04-24T02:19:15;98094.22;;;10.28;80.60
50282;BME280;36176;51.506;10.272;2023-04-24T02:21:42;98085.19;;;10.17;80.72
50282;BME280;36176;51.506;10.272;2023-04-24T02:24:09;98083.28;;;10.07;81.23
50282;BME280;36176;51.506;10.272;2023-04-24T02:26:36;98088.34;;;9.97;81.09
50282;BME280;36176;51.506;10.272;2023-04-24T02:29:03;98080.16;;;9.87;81.06
50282;BME280;36176;51.506;10.272;2023-04-24T02:31:30;98085.22;;;9.77;81.66
50282;BME280;36176;51.506;10.272;2023-04-24T02:33:57;98077.88;;;9.68;81.54
50282;BME280;36176;51.506;10.272;2023-04-24T02:36:24;98091.63;;;9.61;82.25
50282;BME280;36176;51.506;10.272;2023-04-24T02:38:51;98086.72;;;9.54;82.81
50282;BME280;36176;51.506;10.272;2023-04-24T02:41:18;98081.22;;;9.57;83.50
50282;BME280;36176;51.506;10.272;2023-04-24T02:43:45;98084.72;;;9.58;82.65
50282;BME280;36176;51.506;10.272;2023-04-24T02:46:12;98074.16;;;9.58;82.87
50282;BME280;36176;51.506;10.272;2023-04-24T02:48:39;98065.75;;;9.51;82.83
50282;BME280;36176;51.506;10.272;2023-04-24T02:51:06;98082.00;;;9.45;83.61
50282;BME280;36176;51.506;10.272;2023-04-24T02:53:33;98087.00;;;9.50;84.72
50282;BME280;36176;51.506;10.272;2023-04-24T02:56:00;98085.06;;;9.66;85.65
50282;BME280;36176;51.506;10.272;2023-04-24T02:58:27;98086.59;;;9.83;85.19
50282;BME280;36176;51.506;10.272;2023-04-24T03:00:54;98070.88;;;9.94;85.46
50282;BME280;36176;51.506;10.272;2023-04-24T03:03:24;98073.09;;;10.00;85.28
50282;BME280;36176;51.506;10.272;2023-04-24T03:05:52;98063.06;;;10.06;86.01
50282;BME280;36176;51.506;10.272;2023-04-24T03:08:19;98058.41;;;10.09;86.48
50282;BME280;36176;51.506;10.272;2023-04-24T03:10:46;98060.19;;;10.09;85.93
50282;BME280;36176;51.506;10.272;2023-04-24T03:13:15;98056.06;;;10.05;86.75
50282;BME280;36176;51.506;10.272;2023-04-24T03:15:42;98064.31;;;10.00;86.51
50282;BME280;36176;51.506;10.272;2023-04-24T03:18:09;98068.31;;;9.93;86.99
50282;BME280;36176;51.506;10.272;2023-04-24T03:20:36;98060.69;;;9.88;87.21
50282;BME280;36176;51.506;10.272;2023-04-24T03:23:04;98052.88;;;9.87;88.03
50282;BME280;36176;51.506;10.272;2023-04-24T03:25:31;98047.66;;;9.85;87.42
50282;BME280;36176;51.506;10.272;2023-04-24T03:27:58;98050.41;;;9.84;87.86
50282;BME280;36176;51.506;10.272;2023-04-24T03:30:25;98040.47;;;9.87;88.03
50282;BME280;36176;51.506;10.272;2023-04-24T03:32:52;98050.75;;;9.92;88.11
50282;BME280;36176;51.506;10.272;2023-04-24T03:35:19;98045.56;;;9.90;88.66
50282;BME280;36176;51.506;10.272;2023-04-24T03:37:46;98042.06;;;9.90;88.25
50282;BME280;36176;51.506;10.272;2023-04-24T03:40:13;98053.41;;;9.92;88.25
50282;BME280;36176;51.506;10.272;2023-04-24T03:42:39;98054.88;;;9.96;88.07
50282;BME280;36176;51.506;10.272;2023-04-24T03:45:07;98047.50;;;10.01;87.90
50282;BME280;36176;51.506;10.272;2023-04-24T03:47:35;98036.59;;;10.06;88.21
50282;BME280;36176;51.506;10.272;2023-04-24T03:50:02;98043.16;;;10.13;87.79
50282;BME280;36176;51.506;10.272;2023-04-24T03:52:29;98041.06;;;10.18;87.28
50282;BME280;36176;51.506;10.272;2023-04-24T03:54:56;98040.63;;;10.24;86.68
50282;BME280;36176;51.506;10.272;2023-04-24T03:57:23;98042.66;;;10.33;86.86
50282;BME280;36176;51.506;10.272;2023-04-24T03:59:50;98039.50;;;10.41;86.48
50282;BME280;36176;51.506;10.272;2023-04-24T04:02:17;98040.13;;;10.45;86.23
50282;BME280;36176;51.506;10.272;2023-04-24T04:04:44;98040.00;;;10.46;86.27
50282;BME280;36176;51.506;10.272;2023-04-24T04:07:11;98037.38;;;10.46;85.99
50282;BME280;36176;51.506;10.272;2023-04-24T04:09:39;98044.28;;;10.49;85.76
50282;BME280;36176;51.506;10.272;2023-04-24T04:12:06;98046.78;;;10.50;85.97
50282;BME280;36176;51.506;10.272;2023-04-24T04:14:33;98043.84;;;10.55;85.69
50282;BME280;36176;51.506;10.272;2023-04-24T04:17:00;98046.47;;;10.68;85.50
50282;BME280;36176;51.506;10.272;2023-04-24T04:19:27;98053.16;;;10.73;84.80
50282;BME280;36176;51.506;10.272;2023-04-24T04:21:54;98055.47;;;10.78;84.39
50282;BME280;36176;51.506;10.272;2023-04-24T04:24:22;98052.59;;;10.81;84.63
50282;BME280;36176;51.506;10.272;2023-04-24T04:26:51;98056.09;;;10.81;84.23
50282;BME280;36176;51.506;10.272;2023-04-24T04:29:19;98057.47;;;10.87;84.52
50282;BME280;36176;51.506;10.272;2023-04-24T04:31:46;98055.53;;;10.89;84.15
50282;BME280;36176;51.506;10.272;2023-04-24T04:34:13;98057.56;;;10.85;84.04
50282;BME280;36176;51.506;10.272;2023-04-24T04:36:41;98053.22;;;10.84;84.16
50282;BME280;36176;51.506;10.272;2023-04-24T04:39:09;98056.41;;;10.90;84.00
50282;BME280;36176;51.506;10.272;2023-04-24T04:41:36;98053.44;;;10.94;83.76
50282;BME280;36176;51.506;10.272;2023-04-24T04:44:04;98053.94;;;10.99;83.16
50282;BME280;36176;51.506;10.272;2023-04-24T04:46:31;98043.34;;;10.99;83.51
50282;BME280;36176;51.506;10.272;2023-04-24T04:49:02;98037.31;;;10.97;83.46
50282;BME280;36176;51.506;10.272;2023-04-24T04:51:29;98037.72;;;10.91;83.57
50282;BME280;36176;51.506;10.272;2023-04-24T04:53:57;98023.97;;;10.86;84.09
50282;BME280;36176;51.506;10.272;2023-04-24T04:56:24;98037.31;;;10.84;83.92
50282;BME280;36176;51.506;10.272;2023-04-24T04:58:51;98038.94;;;10.87;84.17
50282;BME280;36176;51.506;10.272;2023-04-24T05:01:18;98037.13;;;10.88;83.94
50282;BME280;36176;51.506;10.272;2023-04-24T05:03:48;98047.72;;;10.88;84.28
50282;BME280;36176;51.506;10.272;2023-04-24T05:06:15;98047.81;;;10.86;84.01
50282;BME280;36176;51.506;10.272;2023-04-24T05:08:42;98045.41;;;10.83;84.77
50282;BME280;36176;51.506;10.272;2023-04-24T05:11:09;98050.78;;;10.81;83.94
50282;BME280;36176;51.506;10.272;2023-04-24T05:13:36;98051.00;;;10.78;84.21
50282;BME280;36176;51.506;10.272;2023-04-24T05:16:07;98050.16;;;10.91;84.09
50282;BME280;36176;51.506;10.272;2023-04-24T05:18:34;98053.16;;;11.10;84.20
50282;BME280;36176;51.506;10.272;2023-04-24T05:21:01;98056.25;;;11.41;83.22
50282;BME280;36176;51.506;10.272;2023-04-24T05:23:29;98051.34;;;11.47;82.59
50282;BME280;36176;51.506;10.272;2023-04-24T05:25:56;98065.19;;;11.40;82.51
50282;BME280;36176;51.506;10.272;2023-04-24T05:28:23;98062.13;;;11.33;82.77
50282;BME280;36176;51.506;10.272;2023-04-24T05:30:50;98059.69;;;11.30;83.16
50282;BME280;36176;51.506;10.272;2023-04-24T05:33:17;98068.88;;;11.37;82.73
50282;BME280;36176;51.506;10.272;2023-04-24T05:35:44;98071.50;;;11.50;82.26
50282;BME280;36176;51.506;10.272;2023-04-24T05:38:14;98070.81;;;11.59;82.30
50282;BME280;36176;51.506;10.272;2023-04-24T05:40:41;98071.59;;;11.73;81.16
50282;BME280;36176;51.506;10.272;2023-04-24T05:43:08;98077.88;;;11.96;80.12
50282;BME280;36176;51.506;10.272;2023-04-24T05:45:35;98079.84;;;12.85;79.47
50282;BME280;36176;51.506;10.272;2023-04-24T05:48:05;98093.78;;;13.00;76.46
50282;BME280;36176;51.506;10.272;2023-04-24T05:50:33;98091.72;;;13.15;74.77
50282;BME280;36176;51.506;10.272;2023-04-24T05:53:03;98090.75;;;12.82;74.34
50282;BME280;36176;51.506;10.272;2023-04-24T05:55:31;98085.53;;;12.58;75.52
50282;BME280;36176;51.506;10.272;2023-04-24T05:57:58;98093.81;;;12.42;75.78
50282;BME280;36176;51.506;10.272;2023-04-24T06:00:25;98093.25;;;12.61;75.51
50282;BME280;36176;51.506;10.272;2023-04-24T06:02:52;98097.97;;;12.69;74.84
50282;BME280;36176;51.506;10.272;2023-04-24T06:05:20;98102.47;;;12.80;74.38
50282;BME280;36176;51.506;10.272;2023-04-24T06:07:47;98098.97;;;12.79;73.79
50282;BME280;36176;51.506;10.272;2023-04-24T06:10:14;98088.91;;;12.83;73.98
50282;BME280;36176;51.506;10.272;2023-04-24T06:12:42;98091.59;;;12.83;73.88
50282;BME280;36176;51.506;10.272;2023-04-24T06:15:09;98096.19;;;13.03;71.46
50282;BME280;36176;51.506;10.272;2023-04-24T06:17:36;98099.81;;;12.91;71.43
50282;BME280;36176;51.506;10.272;2023-04-24T06:20:03;98088.19;;;12.92;70.84
50282;BME280;36176;51.506;10.272;2023-04-24T06:22:33;98090.63;;;13.06;70.93
50282;BME280;36176;51.506;10.272;2023-04-24T06:25:00;98093.88;;;12.98;70.02
50282;BME280;36176;51.506;10.272;2023-04-24T06:27:28;98089.75;;;13.51;70.41
50282;BME280;36176;51.506;10.272;2023-04-24T06:29:55;98096.19;;;14.34;65.30
50282;BME280;36176;51.506;10.272;2023-04-24T06:32:22;98084.56;;;14.14;65.22
50282;BME280;36176;51.506;10.272;2023-04-24T06:34:51;98084.53;;;15.38;65.19
50282;BME280;36176;51.506;10.272;2023-04-24T06:37:20;98088.56;;;17.08;59.83
50282;BME280;36176;51.506;10.272;2023-04-24T06:39:47;98099.03;;;17.84;56.58
50282;BME280;36176;51.506;10.272;2023-04-24T06:42:14;98094.72;;;18.27;53.75
50282;BME280;36176;51.506;10.272;2023-04-24T06:44:41;98093.59;;;17.11;52.94
50282;BME280;36176;51.506;10.272;2023-04-24T06:47:08;98093.63;;;15.86;57.90
50282;BME280;36176;51.506;10.272;2023-04-24T06:49:35;98095.16;;;14.88;59.06
50282;BME280;36176;51.506;10.272;2023-04-24T06:52:03;98098.91;;;14.43;60.90
50282;BME280;36176;51.506;10.272;2023-04-24T06:54:30;98093.13;;;13.96;62.99
50282;BME280;36176;51.506;10.272;2023-04-24T06:56:58;98111.00;;;13.62;63.91
50282;BME280;36176;51.506;10.272;2023-04-24T06:59:26;98103.91;;;13.40;65.06
50282;BME280;36176;51.506;10.272;2023-04-24T07:01:54;98121.69;;;13.28;65.08
50282;BME280;36176;51.506;10.272;2023-04-24T07:04:22;98123.41;;;13.84;64.93
50282;BME280;36176;51.506;10.272;2023-04-24T07:06:52;98113.53;;;14.91;61.99
50282;BME280;36176;51.506;10.272;2023-04-24T07:09:24;98123.38;;;14.91;60.46
50282;BME280;36176;51.506;10.272;2023-04-24T07:11:59;98124.41;;;14.99;60.29
50282;BME280;36176;51.506;10.272;2023-04-24T07:14:32;98123.28;;;15.02;60.78
50282;BME280;36176;51.506;10.272;2023-04-24T07:16:59;98114.47;;;14.38;58.92
50282;BME280;36176;51.506;10.272;2023-04-24T07:19:26;98119.50;;;13.88;60.36
50282;BME280;36176;51.506;10.272;2023-04-24T07:21:53;98133.66;;;13.23;61.34
50282;BME280;36176;51.506;10.272;2023-04-24T07:24:21;98122.75;;;12.81;62.24
50282;BME280;36176;51.506;10.272;2023-04-24T07:26:52;98135.03;;;12.59;64.45
50282;BME280;36176;51.506;10.272;2023-04-24T07:29:19;98134.16;;;12.36;63.85
50282;BME280;36176;51.506;10.272;2023-04-24T07:31:46;98139.16;;;12.28;64.92
50282;BME280;36176;51.506;10.272;2023-04-24T07:34:13;98137.78;;;12.11;65.25
50282;BME280;36176;51.506;10.272;2023-04-24T07:36:40;98137.63;;;12.01;65.17
50282;BME280;36176;51.506;10.272;2023-04-24T07:39:08;98145.31;;;11.80;64.46
50282;BME280;36176;51.506;10.272;2023-04-24T07:41:35;98144.53;;;11.67;64.93
50282;BME280;36176;51.506;10.272;2023-04-24T07:44:02;98147.63;;;11.61;64.36
50282;BME280;36176;51.506;10.272;2023-04-24T07:46:30;98149.34;;;11.62;64.25
50282;BME280;36176;51.506;10.272;2023-04-24T07:48:57;98152.03;;;11.73;63.66
50282;BME280;36176;51.506;10.272;2023-04-24T07:51:39;98158.44;;;12.54;63.20
50282;BME280;36176;51.506;10.272;2023-04-24T07:54:06;98164.31;;;13.83;59.27
50282;BME280;36176;51.506;10.272;2023-04-24T07:56:34;98157.78;;;15.24;55.91
50282;BME280;36176;51.506;10.272;2023-04-24T07:59:03;98154.47;;;17.46;53.13
50282;BME280;36176;51.506;10.272;2023-04-24T08:01:30;98150.03;;;18.10;45.12
50282;BME280;36176;51.506;10.272;2023-04-24T08:03:58;98155.06;;;16.83;46.87
50282;BME280;36176;51.506;10.272;2023-04-24T08:06:25;98162.28;;;15.64;49.46
50282;BME280;36176;51.506;10.272;2023-04-24T08:08:57;98167.03;;;15.20;51.43
50282;BME280;36176;51.506;10.272;2023-04-24T08:11:24;98155.47;;;14.58;51.88
50282;BME280;36176;51.506;10.272;2023-04-24T08:13:51;98171.78;;;14.33;53.62
50282;BME280;36176;51.506;10.272;2023-04-24T08:16:18;98165.75;;;13.87;52.50
50282;BME280;36176;51.506;10.272;2023-04-24T08:18:45;98162.06;;;13.56;51.26
50282;BME280;36176;51.506;10.272;2023-04-24T08:21:12;98163.25;;;13.18;52.76
50282;BME280;36176;51.506;10.272;2023-04-24T08:23:46;98172.44;;;13.03;53.71
50282;BME280;36176;51.506;10.272;2023-04-24T08:26:13;98182.19;;;12.80;54.27
50282;BME280;36176;51.506;10.272;2023-04-24T08:28:40;98184.94;;;13.70;55.29
50282;BME280;36176;51.506;10.272;2023-04-24T08:31:08;98188.78;;;15.87;48.19
50282;BME280;36176;51.506;10.272;2023-04-24T08:33:35;98188.41;;;16.01;45.60
50282;BME280;36176;51.506;10.272;2023-04-24T08:36:03;98194.03;;;15.06;47.09
50282;BME280;36176;51.506;10.272;2023-04-24T08:38:30;98197.41;;;14.77;49.29
50282;BME280;36176;51.506;10.272;2023-04-24T08:40:59;98194.09;;;15.77;47.11
50282;BME280;36176;51.506;10.272;2023-04-24T08:43:26;98189.06;;;14.92;46.55
50282;BME280;36176;51.506;10.272;2023-04-24T08:45:57;98192.91;;;16.10;46.14
50282;BME280;36176;51.506;10.272;2023-04-24T08:48:26;98201.25;;;18.07;43.61
50282;BME280;36176;51.506;10.272;2023-04-24T08:50:57;98201.03;;;18.72;40.00
50282;BME280;36176;51.506;10.272;2023-04-24T08:53:25;98209.56;;;18.49;39.82
50282;BME280;36176;51.506;10.272;2023-04-24T08:55:52;98216.25;;;19.07;38.76
50282;BME280;36176;51.506;10.272;2023-04-24T08:58:20;98212.19;;;19.82;39.03
50282;BME280;36176;51.506;10.272;2023-04-24T09:00:47;98204.41;;;19.70;37.85
50282;BME280;36176;51.506;10.272;2023-04-24T09:03:15;98215.91;;;18.13;40.62
50282;BME280;36176;51.506;10.272;2023-04-24T09:05:43;98207.00;;;16.51;42.31
50282;BME280;36176;51.506;10.272;2023-04-24T09:08:19;98213.66;;;15.87;45.10
50282;BME280;36176;51.506;10.272;2023-04-24T09:10:46;98208.16;;;15.18;46.37
50282;BME280;36176;51.506;10.272;2023-04-24T09:13:14;98224.66;;;14.81;48.23
50282;BME280;36176;51.506;10.272;2023-04-24T09:15:42;98214.69;;;14.83;49.57
50282;BME280;36176;51.506;10.272;2023-04-24T09:18:09;98219.25;;;16.64;46.61
50282;BME280;36176;51.506;10.272;2023-04-24T09:20:56;98223.66;;;18.52;44.24
50282;BME280;36176;51.506;10.272;2023-04-24T09:23:23;98216.59;;;19.65;40.74
50282;BME280;36176;51.506;10.272;2023-04-24T09:25:54;98215.41;;;20.52;38.95
50282;BME280;36176;51.506;10.272;2023-04-24T09:28:25;98218.97;;;20.94;38.16
50282;BME280;36176;51.506;10.272;2023-04-24T09:31:02;98217.78;;;20.64;36.49
50282;BME280;36176;51.506;10.272;2023-04-24T09:33:29;98224.78;;;19.03;39.51
50282;BME280;36176;51.506;10.272;2023-04-24T09:35:56;98234.28;;;17.70;41.08
50282;BME280;36176;51.506;10.272;2023-04-24T09:38:33;98235.88;;;17.06;43.14
50282;BME280;36176;51.506;10.272;2023-04-24T09:41:04;98233.94;;;16.79;43.12
50282;BME280;36176;51.506;10.272;2023-04-24T09:43:31;98232.63;;;16.64;44.38
50282;BME280;36176;51.506;10.272;2023-04-24T09:45:59;98228.88;;;17.42;42.26
50282;BME280;36176;51.506;10.272;2023-04-24T09:48:33;98226.25;;;17.98;40.72
50282;BME280;36176;51.506;10.272;2023-04-24T09:51:01;98231.31;;;17.16;40.68
50282;BME280;36176;51.506;10.272;2023-04-24T09:53:29;98227.25;;;16.25;44.15
50282;BME280;36176;51.506;10.272;2023-04-24T09:56:01;98240.69;;;15.94;43.45
50282;BME280;36176;51.506;10.272;2023-04-24T09:58:29;98241.91;;;15.49;44.69
50282;BME280;36176;51.506;10.272;2023-04-24T10:00:56;98238.88;;;15.12;45.41
50282;BME280;36176;51.506;10.272;2023-04-24T10:03:24;98245.63;;;14.74;45.75
50282;BME280;36176;51.506;10.272;2023-04-24T10:05:53;98246.66;;;14.62;46.62
50282;BME280;36176;51.506;10.272;2023-04-24T10:08:20;98247.47;;;14.41;46.95
50282;BME280;36176;51.506;10.272;2023-04-24T10:10:47;98241.81;;;14.23;48.52
50282;BME280;36176;51.506;10.272;2023-04-24T10:13:14;98251.78;;;13.88;47.76
50282;BME280;36176;51.506;10.272;2023-04-24T10:15:43;98250.13;;;13.64;48.67
50282;BME280;36176;51.506;10.272;2023-04-24T10:18:10;98245.91;;;13.39;49.76
50282;BME280;36176;51.506;10.272;2023-04-24T10:20:39;98239.56;;;13.29;49.48
50282;BME280;36176;51.506;10.272;2023-04-24T10:23:07;98241.41;;;13.28;51.34
50282;BME280;36176;51.506;10.272;2023-04-24T10:25:36;98236.91;;;13.29;50.58
50282;BME280;36176;51.506;10.272;2023-04-24T10:28:04;98238.75;;;13.39;50.64
50282;BME280;36176;51.506;10.272;2023-04-24T10:30:35;98239.34;;;13.32;50.22
50282;BME280;36176;51.506;10.272;2023-04-24T10:33:03;98240.50;;;13.16;52.47
50282;BME280;36176;51.506;10.272;2023-04-24T10:35:36;98243.50;;;13.01;51.70
50282;BME280;36176;51.506;10.272;2023-04-24T10:38:25;98242.25;;;12.82;53.58
50282;BME280;36176;51.506;10.272;2023-04-24T10:41:10;98239.97;;;12.89;53.93
50282;BME280;36176;51.506;10.272;2023-04-24T10:43:42;98236.81;;;12.84;53.95
50282;BME280;36176;51.506;10.272;2023-04-24T10:46:10;98236.09;;;12.82;53.99
50282;BME280;36176;51.506;10.272;2023-04-24T10:48:42;98237.03;;;12.81;54.59
50282;BME280;36176;51.506;10.272;2023-04-24T10:51:11;98236.34;;;12.79;55.13
50282;BME280;36176;51.506;10.272;2023-04-24T10:53:39;98238.31;;;12.64;53.91
50282;BME280;36176;51.506;10.272;2023-04-24T10:56:08;98238.41;;;12.51;54.22
50282;BME280;36176;51.506;10.272;2023-04-24T10:58:38;98245.72;;;12.47;54.60
50282;BME280;36176;51.506;10.272;2023-04-24T11:01:07;98236.63;;;12.63;55.05
50282;BME280;36176;51.506;10.272;2023-04-24T11:03:35;98230.84;;;13.15;55.64
50282;BME280;36176;51.506;10.272;2023-04-24T11:06:07;98235.97;;;14.30;54.54
50282;BME280;36176;51.506;10.272;2023-04-24T11:08:38;98233.25;;;15.36;48.23
50282;BME280;36176;51.506;10.272;2023-04-24T11:11:11;98235.66;;;15.39;49.36
50282;BME280;36176;51.506;10.272;2023-04-24T11:16:37;98225.09;;;14.86;47.41
50282;BME280;36176;51.506;10.272;2023-04-24T11:21:58;98229.44;;;14.66;49.64
50282;BME280;36176;51.506;10.272;2023-04-24T11:24:49;98227.44;;;14.79;50.12
50282;BME280;36176;51.506;10.272;2023-04-24T11:27:19;98216.97;;;14.87;48.50
50282;BME280;36176;51.506;10.272;2023-04-24T11:29:47;98229.00;;;14.61;49.99
50282;BME280;36176;51.506;10.272;2023-04-24T11:35:27;98229.22;;;14.25;50.66
50282;BME280;36176;51.506;10.272;2023-04-24T11:37:55;98230.69;;;14.18;51.58
50282;BME280;36176;51.506;10.272;2023-04-24T11:40:25;98222.81;;;14.49;50.24
50282;BME280;36176;51.506;10.272;2023-04-24T11:42:53;98229.97;;;14.49;51.19
50282;BME280;36176;51.506;10.272;2023-04-24T11:45:25;98230.41;;;14.33;51.25
50282;BME280;36176;51.506;10.272;2023-04-24T11:47:53;98246.84;;;13.94;51.46
50282;BME280;36176;51.506;10.272;2023-04-24T11:50:23;98258.09;;;13.42;54.74
50282;BME280;36176;51.506;10.272;2023-04-24T11:52:50;98273.69;;;12.88;65.79
50282;BME280;36176;51.506;10.272;2023-04-24T11:57:47;98267.06;;;12.34;71.32
50282;BME280;36176;51.506;10.272;2023-04-24T12:00:19;98268.56;;;12.26;69.37
50282;BME280;36176;51.506;10.272;2023-04-24T12:02:49;98271.19;;;12.02;70.81
50282;BME280;36176;51.506;10.272;2023-04-24T12:05:25;98272.00;;;11.78;69.32
50282;BME280;36176;51.506;10.272;2023-04-24T12:07:55;98279.41;;;11.86;70.45
50282;BME280;36176;51.506;10.272;2023-04-24T12:10:24;98284.69;;;11.99;65.93
50282;BME280;36176;51.506;10.272;2023-04-24T12:12:52;98288.03;;;12.26;66.57
50282;BME280;36176;51.506;10.272;2023-04-24T12:15:20;98302.47;;;12.22;68.98
50282;BME280;36176;51.506;10.272;2023-04-24T12:17:50;98301.88;;;12.43;67.59
50282;BME280;36176;51.506;10.272;2023-04-24T12:20:24;98311.59;;;12.79;68.73
50282;BME280;36176;51.506;10.272;2023-04-24T12:22:58;98303.38;;;13.17;64.79
50282;BME280;36176;51.506;10.272;2023-04-24T12:25:33;98307.19;;;13.37;64.21
50282;BME280;36176;51.506;10.272;2023-04-24T12:30:32;98305.41;;;13.14;63.61
50282;BME280;36176;51.506;10.272;2023-04-24T12:33:00;98310.91;;;12.88;61.73
50282;BME280;36176;51.506;10.272;2023-04-24T12:35:29;98311.09;;;12.50;62.69
50282;BME280;36176;51.506;10.272;2023-04-24T12:38:16;98299.81;;;12.22;63.71
50282;BME280;36176;51.506;10.272;2023-04-24T12:40:44;98302.63;;;12.08;65.53
50282;BME280;36176;51.506;10.272;2023-04-24T12:43:19;98305.28;;;12.08;66.32
50282;BME280;36176;51.506;10.272;2023-04-24T12:45:47;98307.09;;;11.95;65.38
50282;BME280;36176;51.506;10.272;2023-04-24T12:48:14;98314.13;;;11.70;65.21
50282;BME280;36176;51.506;10.272;2023-04-24T12:50:43;98317.13;;;11.40;64.02
50282;BME280;36176;51.506;10.272;2023-04-24T12:53:14;98330.97;;;11.18;66.17
50282;BME280;36176;51.506;10.272;2023-04-24T12:55:41;98312.75;;;11.26;65.51
50282;BME280;36176;51.506;10.272;2023-04-24T12:58:10;98323.06;;;11.31;65.23
50282;BME280;36176;51.506;10.272;2023-04-24T13:00:38;98335.47;;;11.43;65.08
50282;BME280;36176;51.506;10.272;2023-04-24T13:03:05;98338.44;;;11.64;64.83
50282;BME280;36176;51.506;10.272;2023-04-24T13:05:32;98351.06;;;11.60;65.14
50282;BME280;36176;51.506;10.272;2023-04-24T13:07:59;98353.91;;;11.44;65.14
50282;BME280;36176;51.506;10.272;2023-04-24T13:10:27;98358.69;;;11.26;64.86